sensor_id;sensor_type;location;lat;lon;timestamp;P1;durP1;ratioP1;P2;durP2;ratioP2
75616;SDS011;64200;55.426;37.758;2023-08-31T00:01:24;9.13;;;4.63;;
75616;SDS011;64200;55.426;37.758;2023-08-31T00:06:25;8.63;;;5.20;;
75616;SDS011;64200;55.426;37.758;2023-08-31T00:11:25;8.60;;;4.97;;
75616;SDS011;64200;55.426;37.758;2023-08-31T00:16:26;8.60;;;4.40;;
75616;SDS011;64200;55.426;37.758;2023-08-31T00:21:26;6.80;;;4.57;;
75616;SDS011;64200;55.426;37.758;2023-08-31T00:26:27;6.70;;;4.50;;
75616;SDS011;64200;55.426;37.758;2023-08-31T00:31:29;8.50;;;4.85;;
75616;SDS011;64200;55.426;37.758;2023-08-31T00:36:31;7.25;;;5.18;;
75616;SDS011;64200;55.426;37.758;2023-08-31T00:41:32;6.35;;;4.75;;
75616;SDS011;64200;55.426;37.758;2023-08-31T00:46:32;7.22;;;4.45;;
75616;SDS011;64200;55.426;37.758;2023-08-31T00:51:34;11.55;;;5.10;;
75616;SDS011;64200;55.426;37.758;2023-08-31T00:56:35;9.60;;;4.55;;
75616;SDS011;64200;55.426;37.758;2023-08-31T01:01:36;5.93;;;3.35;;
75616;SDS011;64200;55.426;37.758;2023-08-31T01:06:49;9.52;;;5.60;;
75616;SDS011;64200;55.426;37.758;2023-08-31T01:17:12;8.98;;;4.88;;
75616;SDS011;64200;55.426;37.758;2023-08-31T01:27:41;9.23;;;5.35;;
75616;SDS011;64200;55.426;37.758;2023-08-31T01:32:44;7.82;;;4.88;;
75616;SDS011;64200;55.426;37.758;2023-08-31T01:37:47;7.32;;;5.25;;
75616;SDS011;64200;55.426;37.758;2023-08-31T01:42:56;8.40;;;4.90;;
75616;SDS011;64200;55.426;37.758;2023-08-31T01:47:56;8.05;;;5.22;;
75616;SDS011;64200;55.426;37.758;2023-08-31T01:52:57;11.10;;;5.15;;
75616;SDS011;64200;55.426;37.758;2023-08-31T01:57:58;12.02;;;5.80;;
75616;SDS011;64200;55.426;37.758;2023-08-31T02:02:59;7.80;;;4.53;;
75616;SDS011;64200;55.426;37.758;2023-08-31T02:08:00;8.98;;;5.28;;
75616;SDS011;64200;55.426;37.758;2023-08-31T02:13:00;9.57;;;6.93;;
75616;SDS011;64200;55.426;37.758;2023-08-31T02:18:01;10.80;;;5.63;;
75616;SDS011;64200;55.426;37.758;2023-08-31T02:23:01;12.40;;;6.18;;
75616;SDS011;64200;55.426;37.758;2023-08-31T02:28:02;12.43;;;6.80;;
75616;SDS011;64200;55.426;37.758;2023-08-31T02:33:03;13.77;;;7.43;;
75616;SDS011;64200;55.426;37.758;2023-08-31T02:38:03;16.00;;;7.85;;
75616;SDS011;64200;55.426;37.758;2023-08-31T02:43:04;15.90;;;8.67;;
75616;SDS011;64200;55.426;37.758;2023-08-31T02:48:06;12.37;;;7.37;;
75616;SDS011;64200;55.426;37.758;2023-08-31T02:53:07;12.68;;;7.70;;
75616;SDS011;64200;55.426;37.758;2023-08-31T02:58:08;14.83;;;8.03;;
75616;SDS011;64200;55.426;37.758;2023-08-31T03:03:08;18.87;;;9.03;;
75616;SDS011;64200;55.426;37.758;2023-08-31T03:08:08;15.53;;;9.77;;
75616;SDS011;64200;55.426;37.758;2023-08-31T03:13:09;17.67;;;10.05;;
75616;SDS011;64200;55.426;37.758;2023-08-31T03:18:10;20.03;;;9.27;;
75616;SDS011;64200;55.426;37.758;2023-08-31T03:23:10;15.13;;;8.03;;
75616;SDS011;64200;55.426;37.758;2023-08-31T03:28:11;11.82;;;7.00;;
75616;SDS011;64200;55.426;37.758;2023-08-31T03:33:12;15.57;;;7.68;;
75616;SDS011;64200;55.426;37.758;2023-08-31T03:38:12;13.20;;;8.17;;
75616;SDS011;64200;55.426;37.758;2023-08-31T03:43:13;13.20;;;7.30;;
75616;SDS011;64200;55.426;37.758;2023-08-31T03:48:13;10.87;;;5.70;;
75616;SDS011;64200;55.426;37.758;2023-08-31T03:53:14;11.17;;;6.47;;
75616;SDS011;64200;55.426;37.758;2023-08-31T03:58:14;10.80;;;6.50;;
75616;SDS011;64200;55.426;37.758;2023-08-31T04:03:15;11.05;;;5.30;;
75616;SDS011;64200;55.426;37.758;2023-08-31T04:08:15;14.13;;;7.00;;
75616;SDS011;64200;55.426;37.758;2023-08-31T04:13:16;9.70;;;6.13;;
75616;SDS011;64200;55.426;37.758;2023-08-31T04:18:17;11.43;;;6.43;;
75616;SDS011;64200;55.426;37.758;2023-08-31T04:23:18;13.32;;;6.18;;
75616;SDS011;64200;55.426;37.758;2023-08-31T04:28:19;12.30;;;6.93;;
75616;SDS011;64200;55.426;37.758;2023-08-31T04:33:20;9.30;;;5.57;;
75616;SDS011;64200;55.426;37.758;2023-08-31T04:38:20;11.30;;;6.37;;
75616;SDS011;64200;55.426;37.758;2023-08-31T04:43:20;10.53;;;5.60;;
75616;SDS011;64200;55.426;37.758;2023-08-31T04:48:21;9.47;;;5.60;;
75616;SDS011;64200;55.426;37.758;2023-08-31T04:53:22;10.77;;;5.57;;
75616;SDS011;64200;55.426;37.758;2023-08-31T04:58:22;11.80;;;5.13;;
75616;SDS011;64200;55.426;37.758;2023-08-31T05:03:23;13.57;;;6.13;;
75616;SDS011;64200;55.426;37.758;2023-08-31T05:08:23;10.73;;;5.83;;
75616;SDS011;64200;55.426;37.758;2023-08-31T05:13:24;11.97;;;5.87;;
75616;SDS011;64200;55.426;37.758;2023-08-31T05:18:24;10.93;;;5.57;;
75616;SDS011;64200;55.426;37.758;2023-08-31T05:23:25;8.27;;;5.80;;
75616;SDS011;64200;55.426;37.758;2023-08-31T05:28:25;11.52;;;5.38;;
75616;SDS011;64200;55.426;37.758;2023-08-31T05:33:26;10.43;;;5.00;;
75616;SDS011;64200;55.426;37.758;2023-08-31T05:38:28;8.50;;;5.07;;
75616;SDS011;64200;55.426;37.758;2023-08-31T05:43:29;8.02;;;5.15;;
75616;SDS011;64200;55.426;37.758;2023-08-31T05:48:31;8.13;;;4.90;;
75616;SDS011;64200;55.426;37.758;2023-08-31T05:53:31;6.57;;;5.40;;
75616;SDS011;64200;55.426;37.758;2023-08-31T05:58:34;7.90;;;4.75;;
75616;SDS011;64200;55.426;37.758;2023-08-31T06:03:35;7.43;;;4.25;;
75616;SDS011;64200;55.426;37.758;2023-08-31T06:08:36;7.93;;;4.10;;
75616;SDS011;64200;55.426;37.758;2023-08-31T06:13:37;7.67;;;4.93;;
75616;SDS011;64200;55.426;37.758;2023-08-31T06:18:38;6.72;;;4.15;;
75616;SDS011;64200;55.426;37.758;2023-08-31T06:23:38;10.57;;;5.18;;
75616;SDS011;64200;55.426;37.758;2023-08-31T06:28:39;6.43;;;5.17;;
75616;SDS011;64200;55.426;37.758;2023-08-31T06:33:39;6.95;;;4.82;;
75616;SDS011;64200;55.426;37.758;2023-08-31T06:38:40;8.30;;;4.50;;
75616;SDS011;64200;55.426;37.758;2023-08-31T06:43:40;6.60;;;4.47;;
75616;SDS011;64200;55.426;37.758;2023-08-31T06:48:41;7.40;;;4.97;;
75616;SDS011;64200;55.426;37.758;2023-08-31T06:53:41;8.80;;;4.73;;
75616;SDS011;64200;55.426;37.758;2023-08-31T06:58:43;7.50;;;4.70;;
75616;SDS011;64200;55.426;37.758;2023-08-31T07:03:44;6.57;;;5.10;;
75616;SDS011;64200;55.426;37.758;2023-08-31T07:08:44;6.82;;;4.57;;
75616;SDS011;64200;55.426;37.758;2023-08-31T07:13:47;5.97;;;4.38;;
75616;SDS011;64200;55.426;37.758;2023-08-31T07:18:48;7.25;;;4.70;;
75616;SDS011;64200;55.426;37.758;2023-08-31T07:23:49;9.37;;;4.43;;
75616;SDS011;64200;55.426;37.758;2023-08-31T07:28:49;5.97;;;4.38;;
75616;SDS011;64200;55.426;37.758;2023-08-31T07:33:50;7.33;;;4.77;;
75616;SDS011;64200;55.426;37.758;2023-08-31T07:38:50;6.88;;;4.50;;
75616;SDS011;64200;55.426;37.758;2023-08-31T07:43:51;5.85;;;4.22;;
75616;SDS011;64200;55.426;37.758;2023-08-31T07:48:51;5.77;;;4.40;;
75616;SDS011;64200;55.426;37.758;2023-08-31T07:53:52;7.35;;;4.65;;
75616;SDS011;64200;55.426;37.758;2023-08-31T07:58:53;5.83;;;4.67;;
75616;SDS011;64200;55.426;37.758;2023-08-31T08:03:53;8.80;;;4.55;;
75616;SDS011;64200;55.426;37.758;2023-08-31T08:08:54;7.47;;;4.43;;
75616;SDS011;64200;55.426;37.758;2023-08-31T08:13:54;5.47;;;4.83;;
75616;SDS011;64200;55.426;37.758;2023-08-31T08:18:55;8.35;;;4.78;;
75616;SDS011;64200;55.426;37.758;2023-08-31T08:23:56;10.33;;;5.23;;
75616;SDS011;64200;55.426;37.758;2023-08-31T08:28:56;6.18;;;4.57;;
75616;SDS011;64200;55.426;37.758;2023-08-31T08:33:57;5.50;;;4.55;;
75616;SDS011;64200;55.426;37.758;2023-08-31T08:38:57;7.55;;;5.28;;
75616;SDS011;64200;55.426;37.758;2023-08-31T08:44:01;4.67;;;4.00;;
75616;SDS011;64200;55.426;37.758;2023-08-31T08:49:03;6.28;;;4.80;;
75616;SDS011;64200;55.426;37.758;2023-08-31T08:54:05;5.47;;;4.30;;
75616;SDS011;64200;55.426;37.758;2023-08-31T08:59:06;5.93;;;4.40;;
75616;SDS011;64200;55.426;37.758;2023-08-31T09:04:09;7.22;;;4.68;;
75616;SDS011;64200;55.426;37.758;2023-08-31T09:09:10;5.65;;;4.40;;
75616;SDS011;64200;55.426;37.758;2023-08-31T09:14:17;6.20;;;4.30;;
75616;SDS011;64200;55.426;37.758;2023-08-31T09:19:23;6.72;;;4.25;;
75616;SDS011;64200;55.426;37.758;2023-08-31T09:24:25;5.28;;;3.90;;
75616;SDS011;64200;55.426;37.758;2023-08-31T09:29:25;5.20;;;4.50;;
75616;SDS011;64200;55.426;37.758;2023-08-31T09:34:32;8.85;;;5.13;;
75616;SDS011;64200;55.426;37.758;2023-08-31T09:39:37;6.13;;;5.53;;
75616;SDS011;64200;55.426;37.758;2023-08-31T09:44:43;6.82;;;4.70;;
75616;SDS011;64200;55.426;37.758;2023-08-31T09:49:44;7.50;;;4.80;;
75616;SDS011;64200;55.426;37.758;2023-08-31T09:54:45;10.38;;;4.60;;
75616;SDS011;64200;55.426;37.758;2023-08-31T09:59:48;7.38;;;5.05;;
75616;SDS011;64200;55.426;37.758;2023-08-31T10:04:48;6.28;;;4.97;;
75616;SDS011;64200;55.426;37.758;2023-08-31T10:09:52;6.80;;;5.35;;
75616;SDS011;64200;55.426;37.758;2023-08-31T10:14:53;8.00;;;5.00;;
75616;SDS011;64200;55.426;37.758;2023-08-31T10:19:56;7.18;;;4.78;;
75616;SDS011;64200;55.426;37.758;2023-08-31T10:30:12;8.13;;;4.35;;
75616;SDS011;64200;55.426;37.758;2023-08-31T10:35:14;6.93;;;4.47;;
75616;SDS011;64200;55.426;37.758;2023-08-31T10:40:15;6.28;;;4.88;;
75616;SDS011;64200;55.426;37.758;2023-08-31T10:45:19;10.57;;;4.70;;
75616;SDS011;64200;55.426;37.758;2023-08-31T10:50:21;9.50;;;5.00;;
75616;SDS011;64200;55.426;37.758;2023-08-31T10:55:23;6.80;;;4.60;;
75616;SDS011;64200;55.426;37.758;2023-08-31T11:05:56;5.47;;;4.97;;
75616;SDS011;64200;55.426;37.758;2023-08-31T11:10:57;5.28;;;4.75;;
75616;SDS011;64200;55.426;37.758;2023-08-31T11:15:58;5.70;;;4.50;;
75616;SDS011;64200;55.426;37.758;2023-08-31T11:20:59;4.68;;;4.28;;
75616;SDS011;64200;55.426;37.758;2023-08-31T11:26:00;6.88;;;4.60;;
75616;SDS011;64200;55.426;37.758;2023-08-31T11:31:00;7.30;;;4.72;;
75616;SDS011;64200;55.426;37.758;2023-08-31T11:36:01;5.93;;;4.22;;
75616;SDS011;64200;55.426;37.758;2023-08-31T11:41:03;6.05;;;4.70;;
75616;SDS011;64200;55.426;37.758;2023-08-31T11:46:04;6.47;;;4.32;;
75616;SDS011;64200;55.426;37.758;2023-08-31T11:51:05;6.70;;;4.65;;
75616;SDS011;64200;55.426;37.758;2023-08-31T11:56:06;6.53;;;5.00;;
75616;SDS011;64200;55.426;37.758;2023-08-31T12:01:07;6.53;;;4.30;;
75616;SDS011;64200;55.426;37.758;2023-08-31T12:06:07;5.40;;;4.15;;
75616;SDS011;64200;55.426;37.758;2023-08-31T12:11:08;5.85;;;4.38;;
75616;SDS011;64200;55.426;37.758;2023-08-31T12:16:12;7.75;;;4.82;;
75616;SDS011;64200;55.426;37.758;2023-08-31T12:21:12;5.32;;;4.20;;
75616;SDS011;64200;55.426;37.758;2023-08-31T12:26:13;5.43;;;4.90;;
75616;SDS011;64200;55.426;37.758;2023-08-31T12:31:13;9.55;;;4.60;;
75616;SDS011;64200;55.426;37.758;2023-08-31T12:36:14;6.15;;;4.82;;
75616;SDS011;64200;55.426;37.758;2023-08-31T12:41:15;7.32;;;4.95;;
75616;SDS011;64200;55.426;37.758;2023-08-31T12:46:16;7.78;;;4.72;;
75616;SDS011;64200;55.426;37.758;2023-08-31T12:51:17;8.40;;;4.93;;
75616;SDS011;64200;55.426;37.758;2023-08-31T12:56:18;7.22;;;4.82;;
75616;SDS011;64200;55.426;37.758;2023-08-31T13:01:21;6.55;;;4.65;;
75616;SDS011;64200;55.426;37.758;2023-08-31T13:06:26;6.18;;;4.00;;
75616;SDS011;64200;55.426;37.758;2023-08-31T13:11:26;6.70;;;4.13;;
75616;SDS011;64200;55.426;37.758;2023-08-31T13:16:27;6.78;;;4.65;;
75616;SDS011;64200;55.426;37.758;2023-08-31T13:21:28;7.95;;;4.40;;
75616;SDS011;64200;55.426;37.758;2023-08-31T13:26:31;8.82;;;4.80;;
75616;SDS011;64200;55.426;37.758;2023-08-31T13:31:32;8.95;;;5.03;;
75616;SDS011;64200;55.426;37.758;2023-08-31T13:36:34;10.38;;;4.70;;
75616;SDS011;64200;55.426;37.758;2023-08-31T13:41:34;7.75;;;4.35;;
75616;SDS011;64200;55.426;37.758;2023-08-31T13:46:35;6.43;;;4.37;;
75616;SDS011;64200;55.426;37.758;2023-08-31T13:51:35;8.90;;;5.38;;
75616;SDS011;64200;55.426;37.758;2023-08-31T13:56:36;7.10;;;4.85;;
75616;SDS011;64200;55.426;37.758;2023-08-31T14:01:37;8.00;;;4.55;;
75616;SDS011;64200;55.426;37.758;2023-08-31T14:06:38;6.20;;;4.20;;
75616;SDS011;64200;55.426;37.758;2023-08-31T14:11:38;7.28;;;4.20;;
75616;SDS011;64200;55.426;37.758;2023-08-31T14:16:39;5.78;;;4.30;;
75616;SDS011;64200;55.426;37.758;2023-08-31T14:21:40;8.57;;;4.32;;
75616;SDS011;64200;55.426;37.758;2023-08-31T14:26:40;7.67;;;4.23;;
75616;SDS011;64200;55.426;37.758;2023-08-31T14:31:41;6.07;;;4.05;;
75616;SDS011;64200;55.426;37.758;2023-08-31T14:36:41;6.03;;;3.47;;
75616;SDS011;64200;55.426;37.758;2023-08-31T14:41:42;6.13;;;3.88;;
75616;SDS011;64200;55.426;37.758;2023-08-31T14:46:42;9.35;;;4.60;;
75616;SDS011;64200;55.426;37.758;2023-08-31T14:51:43;6.40;;;4.00;;
75616;SDS011;64200;55.426;37.758;2023-08-31T14:56:44;6.28;;;4.32;;
75616;SDS011;64200;55.426;37.758;2023-08-31T15:01:44;5.35;;;3.80;;
75616;SDS011;64200;55.426;37.758;2023-08-31T15:06:46;10.88;;;4.72;;
75616;SDS011;64200;55.426;37.758;2023-08-31T15:11:46;8.17;;;5.57;;
75616;SDS011;64200;55.426;37.758;2023-08-31T15:16:47;8.98;;;4.72;;
75616;SDS011;64200;55.426;37.758;2023-08-31T15:21:47;11.10;;;5.53;;
75616;SDS011;64200;55.426;37.758;2023-08-31T15:26:48;9.63;;;5.97;;
75616;SDS011;64200;55.426;37.758;2023-08-31T15:31:48;10.18;;;5.88;;
75616;SDS011;64200;55.426;37.758;2023-08-31T15:36:49;10.47;;;5.47;;
75616;SDS011;64200;55.426;37.758;2023-08-31T15:41:49;9.13;;;5.43;;
75616;SDS011;64200;55.426;37.758;2023-08-31T15:46:51;9.23;;;4.95;;
75616;SDS011;64200;55.426;37.758;2023-08-31T15:51:52;13.38;;;5.55;;
75616;SDS011;64200;55.426;37.758;2023-08-31T15:56:52;10.83;;;6.53;;
75616;SDS011;64200;55.426;37.758;2023-08-31T16:01:53;8.43;;;5.13;;
75616;SDS011;64200;55.426;37.758;2023-08-31T16:06:53;9.57;;;4.63;;
75616;SDS011;64200;55.426;37.758;2023-08-31T16:11:53;9.07;;;5.23;;
75616;SDS011;64200;55.426;37.758;2023-08-31T16:16:54;10.50;;;5.18;;
75616;SDS011;64200;55.426;37.758;2023-08-31T16:21:55;11.60;;;5.05;;
75616;SDS011;64200;55.426;37.758;2023-08-31T16:26:56;9.80;;;5.13;;
75616;SDS011;64200;55.426;37.758;2023-08-31T16:31:56;6.50;;;4.45;;
75616;SDS011;64200;55.426;37.758;2023-08-31T16:36:57;7.10;;;4.47;;
75616;SDS011;64200;55.426;37.758;2023-08-31T16:41:57;9.77;;;5.07;;
75616;SDS011;64200;55.426;37.758;2023-08-31T16:46:58;9.23;;;5.10;;
75616;SDS011;64200;55.426;37.758;2023-08-31T16:51:59;10.52;;;5.72;;
75616;SDS011;64200;55.426;37.758;2023-08-31T16:57:00;11.75;;;5.80;;
75616;SDS011;64200;55.426;37.758;2023-08-31T17:02:01;12.33;;;5.43;;
75616;SDS011;64200;55.426;37.758;2023-08-31T17:07:01;11.15;;;6.60;;
75616;SDS011;64200;55.426;37.758;2023-08-31T17:12:03;12.70;;;6.20;;
75616;SDS011;64200;55.426;37.758;2023-08-31T17:17:04;12.98;;;6.57;;
75616;SDS011;64200;55.426;37.758;2023-08-31T17:22:04;12.10;;;7.07;;
75616;SDS011;64200;55.426;37.758;2023-08-31T17:27:05;11.90;;;6.47;;
75616;SDS011;64200;55.426;37.758;2023-08-31T17:32:05;11.57;;;6.70;;
75616;SDS011;64200;55.426;37.758;2023-08-31T17:37:06;11.87;;;6.80;;
75616;SDS011;64200;55.426;37.758;2023-08-31T17:42:06;9.38;;;6.25;;
75616;SDS011;64200;55.426;37.758;2023-08-31T17:47:07;13.70;;;7.15;;
75616;SDS011;64200;55.426;37.758;2023-08-31T17:52:08;11.88;;;7.65;;
75616;SDS011;64200;55.426;37.758;2023-08-31T17:57:09;15.45;;;7.35;;
75616;SDS011;64200;55.426;37.758;2023-08-31T18:02:10;11.27;;;7.63;;
75616;SDS011;64200;55.426;37.758;2023-08-31T18:07:11;13.00;;;7.35;;
75616;SDS011;64200;55.426;37.758;2023-08-31T18:12:11;11.70;;;6.78;;
75616;SDS011;64200;55.426;37.758;2023-08-31T18:17:12;11.27;;;6.50;;
75616;SDS011;64200;55.426;37.758;2023-08-31T18:22:13;13.23;;;6.13;;
75616;SDS011;64200;55.426;37.758;2023-08-31T18:27:13;11.47;;;5.70;;
75616;SDS011;64200;55.426;37.758;2023-08-31T18:32:14;8.23;;;5.95;;
75616;SDS011;64200;55.426;37.758;2023-08-31T18:37:14;9.02;;;5.70;;
75616;SDS011;64200;55.426;37.758;2023-08-31T18:42:15;8.93;;;5.93;;
75616;SDS011;64200;55.426;37.758;2023-08-31T18:47:17;11.23;;;5.10;;
75616;SDS011;64200;55.426;37.758;2023-08-31T18:52:18;8.03;;;5.10;;
75616;SDS011;64200;55.426;37.758;2023-08-31T18:57:18;9.65;;;5.57;;
75616;SDS011;64200;55.426;37.758;2023-08-31T19:02:19;13.38;;;5.90;;
75616;SDS011;64200;55.426;37.758;2023-08-31T19:07:21;9.48;;;5.38;;
75616;SDS011;64200;55.426;37.758;2023-08-31T19:12:21;9.47;;;5.50;;
75616;SDS011;64200;55.426;37.758;2023-08-31T19:17:22;8.40;;;5.43;;
75616;SDS011;64200;55.426;37.758;2023-08-31T19:22:22;13.02;;;5.75;;
75616;SDS011;64200;55.426;37.758;2023-08-31T19:27:23;9.88;;;5.57;;
75616;SDS011;64200;55.426;37.758;2023-08-31T19:32:24;12.77;;;6.25;;
75616;SDS011;64200;55.426;37.758;2023-08-31T19:37:31;9.55;;;6.28;;
75616;SDS011;64200;55.426;37.758;2023-08-31T19:42:33;11.15;;;6.05;;
75616;SDS011;64200;55.426;37.758;2023-08-31T19:47:34;9.93;;;5.50;;
75616;SDS011;64200;55.426;37.758;2023-08-31T19:52:34;11.53;;;5.70;;
75616;SDS011;64200;55.426;37.758;2023-08-31T19:57:35;8.05;;;5.72;;
75616;SDS011;64200;55.426;37.758;2023-08-31T20:02:36;11.00;;;6.13;;
75616;SDS011;64200;55.426;37.758;2023-08-31T20:07:36;9.20;;;5.40;;
75616;SDS011;64200;55.426;37.758;2023-08-31T20:12:37;9.00;;;5.82;;
75616;SDS011;64200;55.426;37.758;2023-08-31T20:17:37;7.80;;;5.53;;
75616;SDS011;64200;55.426;37.758;2023-08-31T20:22:39;11.60;;;5.82;;
75616;SDS011;64200;55.426;37.758;2023-08-31T20:27:39;9.95;;;6.15;;
75616;SDS011;64200;55.426;37.758;2023-08-31T20:32:40;7.13;;;4.78;;
75616;SDS011;64200;55.426;37.758;2023-08-31T20:37:41;11.30;;;5.63;;
75616;SDS011;64200;55.426;37.758;2023-08-31T20:42:41;7.65;;;5.68;;
75616;SDS011;64200;55.426;37.758;2023-08-31T20:47:42;8.93;;;5.00;;
75616;SDS011;64200;55.426;37.758;2023-08-31T20:52:44;9.35;;;5.60;;
75616;SDS011;64200;55.426;37.758;2023-08-31T20:57:45;10.18;;;6.05;;
75616;SDS011;64200;55.426;37.758;2023-08-31T21:02:45;11.43;;;6.00;;
75616;SDS011;64200;55.426;37.758;2023-08-31T21:07:46;11.70;;;6.20;;
75616;SDS011;64200;55.426;37.758;2023-08-31T21:12:46;9.25;;;5.30;;
75616;SDS011;64200;55.426;37.758;2023-08-31T21:17:47;10.27;;;6.13;;
75616;SDS011;64200;55.426;37.758;2023-08-31T21:22:47;13.00;;;5.57;;
75616;SDS011;64200;55.426;37.758;2023-08-31T21:27:48;11.60;;;5.60;;
75616;SDS011;64200;55.426;37.758;2023-08-31T21:32:48;9.50;;;5.47;;
75616;SDS011;64200;55.426;37.758;2023-08-31T21:37:49;12.70;;;5.87;;
75616;SDS011;64200;55.426;37.758;2023-08-31T21:42:53;9.70;;;5.22;;
75616;SDS011;64200;55.426;37.758;2023-08-31T21:47:54;8.25;;;4.70;;
75616;SDS011;64200;55.426;37.758;2023-08-31T21:52:55;8.90;;;5.03;;
75616;SDS011;64200;55.426;37.758;2023-08-31T21:57:55;9.93;;;5.20;;
75616;SDS011;64200;55.426;37.758;2023-08-31T22:02:56;9.47;;;4.57;;
75616;SDS011;64200;55.426;37.758;2023-08-31T22:07:56;7.93;;;6.10;;
75616;SDS011;64200;55.426;37.758;2023-08-31T22:12:57;10.65;;;5.65;;
75616;SDS011;64200;55.426;37.758;2023-08-31T22:17:58;11.57;;;6.28;;
75616;SDS011;64200;55.426;37.758;2023-08-31T22:22:59;11.90;;;5.55;;
75616;SDS011;64200;55.426;37.758;2023-08-31T22:28:00;11.18;;;6.18;;
75616;SDS011;64200;55.426;37.758;2023-08-31T22:33:03;9.88;;;5.32;;
75616;SDS011;64200;55.426;37.758;2023-08-31T22:38:04;8.80;;;4.82;;
75616;SDS011;64200;55.426;37.758;2023-08-31T22:43:04;7.83;;;5.87;;
75616;SDS011;64200;55.426;37.758;2023-08-31T22:48:05;10.90;;;5.80;;
75616;SDS011;64200;55.426;37.758;2023-08-31T22:53:07;9.30;;;6.00;;
75616;SDS011;64200;55.426;37.758;2023-08-31T22:58:07;13.63;;;5.38;;
75616;SDS011;64200;55.426;37.758;2023-08-31T23:03:08;9.40;;;5.37;;
75616;SDS011;64200;55.426;37.758;2023-08-31T23:08:11;12.15;;;5.70;;
75616;SDS011;64200;55.426;37.758;2023-08-31T23:13:12;15.43;;;5.18;;
75616;SDS011;64200;55.426;37.758;2023-08-31T23:18:12;11.37;;;6.07;;
75616;SDS011;64200;55.426;37.758;2023-08-31T23:23:13;8.52;;;5.95;;
75616;SDS011;64200;55.426;37.758;2023-08-31T23:28:13;9.10;;;5.70;;
75616;SDS011;64200;55.426;37.758;2023-08-31T23:33:14;7.30;;;5.37;;
75616;SDS011;64200;55.426;37.758;2023-08-31T23:38:14;13.05;;;6.13;;
75616;SDS011;64200;55.426;37.758;2023-08-31T23:43:15;10.43;;;4.78;;
75616;SDS011;64200;55.426;37.758;2023-08-31T23:48:15;6.73;;;4.33;;
75616;SDS011;64200;55.426;37.758;2023-08-31T23:53:16;7.93;;;5.60;;
75616;SDS011;64200;55.426;37.758;2023-08-31T23:58:16;8.10;;;3.95;;
